Metar z pełnej godziny Komunikat METAR ze strony awiacja.imgw.pl Metar G00 EPSY METAR EPSY 230400Z 17009KT 140V200 9999 BKN024 OVC040 08/04 Q0993=